createdAt,value
2024-02-13T00:00:21.558Z,6.90
2024-02-13T00:02:49.382Z,6.90
2024-02-13T00:05:16.453Z,7.00
2024-02-13T00:07:43.322Z,7.00
2024-02-13T00:10:11.871Z,6.90
2024-02-13T00:12:39.621Z,7.10
2024-02-13T00:15:07.640Z,7.00
2024-02-13T00:17:36.382Z,7.20
2024-02-13T00:20:09.968Z,7.20
2024-02-13T00:22:37.320Z,7.10
2024-02-13T00:25:04.582Z,7.20
2024-02-13T00:27:34.580Z,7.30
2024-02-13T00:30:05.104Z,6.90
2024-02-13T00:32:38.897Z,7.00
2024-02-13T00:35:10.171Z,6.80
2024-02-13T00:37:38.297Z,7.00
2024-02-13T00:40:07.197Z,7.00
2024-02-13T00:42:36.991Z,6.70
2024-02-13T00:45:06.320Z,6.90
2024-02-13T00:47:33.240Z,6.80
2024-02-13T00:50:00.150Z,6.80
2024-02-13T00:52:30.043Z,6.90
2024-02-13T00:54:57.485Z,6.90
2024-02-13T00:57:25.475Z,7.00
2024-02-13T00:59:53.020Z,6.70
2024-02-13T01:02:20.228Z,8.10
2024-02-13T01:04:49.220Z,6.80
2024-02-13T01:07:18.637Z,6.80
2024-02-13T01:09:45.850Z,6.60
2024-02-13T01:12:12.730Z,6.80
2024-02-13T01:14:40.175Z,6.80
2024-02-13T01:17:07.463Z,6.80
2024-02-13T01:19:34.436Z,6.70
2024-02-13T01:22:02.222Z,6.70
2024-02-13T01:24:30.349Z,6.80
2024-02-13T01:26:58.893Z,6.70
2024-02-13T01:29:26.014Z,6.80
2024-02-13T01:31:53.069Z,6.80
2024-02-13T01:34:19.988Z,6.60
2024-02-13T01:36:46.858Z,6.90
2024-02-13T01:39:13.696Z,6.80
2024-02-13T01:41:40.517Z,6.80
2024-02-13T01:44:07.482Z,6.80
2024-02-13T01:46:35.281Z,6.80
2024-02-13T01:49:04.468Z,6.80
2024-02-13T01:51:35.456Z,6.60
2024-02-13T01:54:06.370Z,6.70
2024-02-13T01:56:34.926Z,6.70
2024-02-13T01:59:04.674Z,6.70
2024-02-13T02:01:32.696Z,6.70
2024-02-13T02:04:01.451Z,6.70
2024-02-13T02:06:28.547Z,6.60
2024-02-13T02:08:56.433Z,6.70
2024-02-13T02:11:26.207Z,6.80
2024-02-13T02:13:53.948Z,6.70
2024-02-13T02:16:20.851Z,6.80
2024-02-13T02:18:47.840Z,6.70
2024-02-13T02:21:15.776Z,6.50
2024-02-13T02:23:42.721Z,6.60
2024-02-13T02:26:09.707Z,6.80
2024-02-13T02:28:36.648Z,6.60
2024-02-13T02:31:03.863Z,6.90
2024-02-13T02:33:31.672Z,6.70
2024-02-13T02:35:58.608Z,6.90
2024-02-13T02:38:25.452Z,6.90
2024-02-13T02:40:52.308Z,7.00
2024-02-13T02:43:20.288Z,6.80
2024-02-13T02:45:47.252Z,6.90
2024-02-13T02:48:15.919Z,6.90
2024-02-13T02:50:43.493Z,6.60
2024-02-13T02:53:10.471Z,6.70
2024-02-13T02:55:37.393Z,6.90
2024-02-13T02:58:04.384Z,6.80
2024-02-13T03:00:31.298Z,6.90
2024-02-13T03:02:58.355Z,6.90
2024-02-13T03:05:27.331Z,7.00
2024-02-13T03:07:54.409Z,7.00
2024-02-13T03:10:21.703Z,6.60
2024-02-13T03:12:48.827Z,6.80
2024-02-13T03:15:15.831Z,6.90
2024-02-13T03:17:43.966Z,6.80
2024-02-13T03:20:12.472Z,6.90
2024-02-13T03:22:40.440Z,6.80
2024-02-13T03:25:07.870Z,6.90
2024-02-13T03:27:34.976Z,6.90
2024-02-13T03:30:02.013Z,7.00
2024-02-13T03:32:29.030Z,7.00
2024-02-13T03:34:56.090Z,7.10
2024-02-13T03:37:23.258Z,7.00
2024-02-13T03:39:50.148Z,7.10
2024-02-13T03:42:17.635Z,7.00
2024-02-13T03:44:45.208Z,6.90
2024-02-13T03:47:12.745Z,6.80
2024-02-13T03:49:39.816Z,6.90
2024-02-13T03:52:07.685Z,7.10
2024-02-13T03:54:34.671Z,7.20
2024-02-13T03:57:02.309Z,7.00
2024-02-13T03:59:30.679Z,7.00
2024-02-13T04:01:58.332Z,7.10
2024-02-13T04:04:25.240Z,7.10
2024-02-13T04:06:52.120Z,6.90
2024-02-13T04:09:19.219Z,7.00
2024-02-13T04:11:50.767Z,7.30
2024-02-13T04:14:19.321Z,7.50
2024-02-13T04:16:46.504Z,7.60
2024-02-13T04:19:13.851Z,7.40
2024-02-13T04:21:40.897Z,7.50
2024-02-13T04:24:08.858Z,7.50
2024-02-13T04:26:42.793Z,7.60
2024-02-13T04:29:10.069Z,7.90
2024-02-13T04:31:39.283Z,7.70
2024-02-13T04:34:07.436Z,7.60
2024-02-13T04:36:35.093Z,7.50
2024-02-13T04:39:02.063Z,7.30
2024-02-13T04:41:29.093Z,7.40
2024-02-13T04:43:56.045Z,7.30
2024-02-13T04:46:26.336Z,7.40
2024-02-13T04:48:54.595Z,7.40
2024-02-13T04:51:21.866Z,7.30
2024-02-13T04:53:48.863Z,7.40
2024-02-13T04:56:16.820Z,7.10
2024-02-13T04:58:44.979Z,7.20
2024-02-13T05:01:14.758Z,7.20
2024-02-13T05:03:48.098Z,7.10
2024-02-13T05:06:34.310Z,7.90
2024-02-13T05:09:01.489Z,7.10
2024-02-13T05:11:28.383Z,7.10
2024-02-13T05:13:57.565Z,7.20
2024-02-13T05:16:26.917Z,7.60
2024-02-13T05:18:54.041Z,7.40
2024-02-13T05:21:22.431Z,7.40
2024-02-13T05:23:50.281Z,7.20
2024-02-13T05:26:21.765Z,7.10
2024-02-13T05:28:50.657Z,7.20
2024-02-13T05:31:19.267Z,7.10
2024-02-13T05:33:46.470Z,7.00
2024-02-13T05:36:13.458Z,7.10
2024-02-13T05:38:49.162Z,7.20
2024-02-13T05:41:16.759Z,7.30
2024-02-13T05:43:43.989Z,7.20
2024-02-13T05:46:11.230Z,7.10
2024-02-13T05:48:39.051Z,7.30
2024-02-13T05:51:06.207Z,7.30
2024-02-13T05:53:33.630Z,7.10
2024-02-13T05:56:01.202Z,7.10
2024-02-13T05:58:30.003Z,7.10
2024-02-13T06:00:58.721Z,7.10
2024-02-13T06:03:26.263Z,7.10
2024-02-13T06:05:56.405Z,7.10
2024-02-13T06:08:24.191Z,7.00
2024-02-13T06:10:51.385Z,7.00
2024-02-13T06:13:18.277Z,6.90
2024-02-13T06:15:45.407Z,6.90
2024-02-13T06:18:13.208Z,7.10
2024-02-13T06:20:40.502Z,7.10
2024-02-13T06:23:07.537Z,7.20
2024-02-13T06:25:34.370Z,7.20
2024-02-13T06:28:01.232Z,7.30
2024-02-13T06:30:28.249Z,7.40
2024-02-13T06:32:55.429Z,7.40
2024-02-13T06:35:22.517Z,7.40
2024-02-13T06:37:49.553Z,7.40
2024-02-13T06:40:16.635Z,7.30
2024-02-13T06:42:43.535Z,7.40
2024-02-13T06:45:11.562Z,7.10
2024-02-13T06:47:39.075Z,7.40
2024-02-13T06:50:13.538Z,7.30
2024-02-13T06:52:41.784Z,7.50
2024-02-13T06:55:09.493Z,7.60
2024-02-13T06:57:37.234Z,7.70
2024-02-13T07:00:09.887Z,7.70
2024-02-13T07:02:37.246Z,7.50
2024-02-13T07:05:09.957Z,7.30
2024-02-13T07:07:46.608Z,7.30
2024-02-13T07:10:18.952Z,7.10
2024-02-13T07:12:46.490Z,7.20
2024-02-13T07:15:13.957Z,6.90
2024-02-13T07:17:52.322Z,7.00
2024-02-13T07:20:24.815Z,6.80
2024-02-13T07:22:52.206Z,6.90
2024-02-13T07:25:19.267Z,6.90
2024-02-13T07:27:48.425Z,7.10
2024-02-13T07:30:16.356Z,7.20
2024-02-13T07:32:43.682Z,7.00
2024-02-13T07:35:10.965Z,7.20
2024-02-13T07:37:38.000Z,7.30
2024-02-13T07:40:05.667Z,7.20
2024-02-13T07:42:32.568Z,7.30
2024-02-13T07:45:00.364Z,7.20
2024-02-13T07:47:28.353Z,7.50
2024-02-13T07:49:56.608Z,7.60
2024-02-13T07:52:23.684Z,7.50
2024-02-13T07:54:52.271Z,7.70
2024-02-13T07:57:19.783Z,7.70
2024-02-13T07:59:47.961Z,7.50
2024-02-13T08:02:15.415Z,7.50
2024-02-13T08:04:42.614Z,7.60
2024-02-13T08:07:10.386Z,7.70
2024-02-13T08:09:37.529Z,7.80
2024-02-13T08:12:07.390Z,7.80
2024-02-13T08:14:36.027Z,7.40
2024-02-13T08:17:07.660Z,7.40
2024-02-13T08:19:36.072Z,7.70
2024-02-13T08:22:03.040Z,7.90
2024-02-13T08:24:30.496Z,8.10
2024-02-13T08:26:57.452Z,8.40
2024-02-13T08:29:24.546Z,8.40
2024-02-13T08:31:51.772Z,8.30
2024-02-13T08:34:19.972Z,8.20
2024-02-13T08:36:47.860Z,8.20
2024-02-13T08:39:15.092Z,8.20
2024-02-13T08:41:42.230Z,8.20
2024-02-13T08:44:11.334Z,8.30
2024-02-13T08:46:38.216Z,8.30
2024-02-13T08:49:06.253Z,8.10
2024-02-13T08:51:36.731Z,8.20
2024-02-13T08:54:05.592Z,8.20
2024-02-13T08:56:33.890Z,8.40
2024-02-13T08:59:02.249Z,8.40
2024-02-13T09:01:31.571Z,8.50
2024-02-13T09:03:58.735Z,7.90
2024-02-13T09:06:25.809Z,8.30
2024-02-13T09:08:52.793Z,8.40
2024-02-13T09:11:20.259Z,8.40
2024-02-13T09:13:47.609Z,8.30
2024-02-13T09:16:14.884Z,8.40
2024-02-13T09:18:42.957Z,8.50
2024-02-13T09:21:10.831Z,8.60
2024-02-13T09:23:38.141Z,8.70
2024-02-13T09:26:05.534Z,8.70
2024-02-13T09:28:32.671Z,8.60
2024-02-13T09:30:59.990Z,8.50
2024-02-13T09:33:27.753Z,8.60
2024-02-13T09:35:55.335Z,8.80
2024-02-13T09:38:23.531Z,9.00
2024-02-13T09:40:51.759Z,8.90
2024-02-13T09:43:19.660Z,9.00
2024-02-13T09:45:47.051Z,9.00
2024-02-13T09:48:27.321Z,9.10
2024-02-13T09:50:58.926Z,9.00
2024-02-13T09:53:28.406Z,9.00
2024-02-13T09:56:01.978Z,9.10
2024-02-13T09:58:36.476Z,9.20
2024-02-13T10:01:04.183Z,9.00
2024-02-13T10:03:31.379Z,9.40
2024-02-13T10:05:59.053Z,9.40
2024-02-13T10:08:29.556Z,9.30
2024-02-13T10:11:07.254Z,9.30
2024-02-13T10:13:46.251Z,9.30
2024-02-13T10:16:27.616Z,9.10
2024-02-13T10:18:56.028Z,8.80
2024-02-13T10:21:27.871Z,8.80
2024-02-13T10:24:15.773Z,9.80
2024-02-13T10:26:43.769Z,8.80
2024-02-13T10:29:11.305Z,8.80
2024-02-13T10:31:41.797Z,8.90
2024-02-13T10:34:12.799Z,8.90
2024-02-13T10:36:44.233Z,8.90
2024-02-13T10:39:13.981Z,9.00
2024-02-13T10:41:43.173Z,9.10
2024-02-13T10:44:11.784Z,9.00
2024-02-13T10:46:41.858Z,9.10
2024-02-13T10:49:25.965Z,9.10
2024-02-13T10:51:54.809Z,9.30
2024-02-13T10:54:25.493Z,9.10
2024-02-13T10:56:53.909Z,9.10
2024-02-13T10:59:23.665Z,9.20
2024-02-13T11:01:52.963Z,9.30
2024-02-13T11:04:21.310Z,9.30
2024-02-13T11:06:48.516Z,9.10
2024-02-13T11:09:15.496Z,9.20
2024-02-13T11:11:46.531Z,9.30
2024-02-13T11:14:23.847Z,9.40
2024-02-13T11:16:52.548Z,9.50
2024-02-13T11:19:21.670Z,9.60
2024-02-13T11:21:52.508Z,9.60
2024-02-13T11:24:23.172Z,9.80
2024-02-13T11:26:50.622Z,9.80
2024-02-13T11:29:22.015Z,9.80
2024-02-13T11:31:59.767Z,9.60
2024-02-13T11:34:43.849Z,9.80
2024-02-13T11:37:22.064Z,10.00
2024-02-13T11:39:50.192Z,9.70
2024-02-13T11:42:23.277Z,9.90
2024-02-13T11:44:51.820Z,9.90
2024-02-13T11:47:25.670Z,10.10
2024-02-13T11:49:52.949Z,10.20
2024-02-13T11:52:21.230Z,10.50
2024-02-13T11:54:49.765Z,10.30
2024-02-13T11:57:18.950Z,10.50
2024-02-13T11:59:59.442Z,10.30
2024-02-13T12:02:27.194Z,10.00
2024-02-13T12:04:54.803Z,10.20
2024-02-13T12:07:23.158Z,10.20
2024-02-13T12:09:53.751Z,9.90
2024-02-13T12:12:21.739Z,10.10
2024-02-13T12:14:52.020Z,9.70
2024-02-13T12:17:22.129Z,9.70
2024-02-13T12:19:49.541Z,10.10
2024-02-13T12:22:18.050Z,10.00
2024-02-13T12:24:46.671Z,10.30
2024-02-13T12:27:16.416Z,10.00
2024-02-13T12:29:47.149Z,10.20
2024-02-13T12:32:18.775Z,10.10
2024-02-13T12:34:52.039Z,10.10
2024-02-13T12:37:21.343Z,10.30
2024-02-13T12:39:49.037Z,10.30
2024-02-13T12:42:18.701Z,10.20
2024-02-13T12:44:46.188Z,9.90
2024-02-13T12:47:18.673Z,10.00
2024-02-13T12:49:46.295Z,9.90
2024-02-13T12:52:18.180Z,10.10
2024-02-13T12:54:47.944Z,10.30
2024-02-13T12:57:15.819Z,10.50
2024-02-13T12:59:47.264Z,10.60
2024-02-13T13:02:15.682Z,10.90
2024-02-13T13:04:43.002Z,10.60
2024-02-13T13:07:10.483Z,10.50
2024-02-13T13:09:39.751Z,10.50
2024-02-13T13:12:09.671Z,10.60
2024-02-13T13:14:39.335Z,10.40
2024-02-13T13:17:08.652Z,10.30
2024-02-13T13:19:36.018Z,10.30
2024-02-13T13:22:04.014Z,10.20
2024-02-13T13:24:31.932Z,10.50
2024-02-13T13:26:58.905Z,10.70
2024-02-13T13:29:25.969Z,10.40
2024-02-13T13:31:53.093Z,10.50
2024-02-13T13:34:24.441Z,10.40
2024-02-13T13:36:53.397Z,10.60
2024-02-13T13:39:22.218Z,10.70
2024-02-13T13:41:51.145Z,10.60
2024-02-13T13:44:19.277Z,10.80
2024-02-13T13:46:47.354Z,11.10
2024-02-13T13:49:18.868Z,11.20
2024-02-13T13:51:52.557Z,11.10
2024-02-13T13:54:21.439Z,11.40
2024-02-13T13:56:48.351Z,10.90
2024-02-13T13:59:15.386Z,10.90
2024-02-13T14:01:42.399Z,10.70
2024-02-13T14:04:12.708Z,10.80
2024-02-13T14:06:40.845Z,10.80
2024-02-13T14:09:08.821Z,10.90
2024-02-13T14:11:36.532Z,11.00
2024-02-13T14:14:03.605Z,10.80
2024-02-13T14:16:30.519Z,10.80
2024-02-13T14:18:59.076Z,11.00
2024-02-13T14:21:25.932Z,10.80
2024-02-13T14:23:55.909Z,10.90
2024-02-13T14:26:22.893Z,11.00
2024-02-13T14:28:49.722Z,10.80
2024-02-13T14:31:18.669Z,10.90
2024-02-13T14:33:45.886Z,10.90
2024-02-13T14:36:12.798Z,11.00
2024-02-13T14:38:39.709Z,10.70
2024-02-13T14:41:06.647Z,10.90
2024-02-13T14:43:33.585Z,10.70
2024-02-13T14:46:00.613Z,11.10
2024-02-13T14:48:28.454Z,11.00
2024-02-13T14:50:55.554Z,10.80
2024-02-13T14:53:25.052Z,10.90
2024-02-13T14:55:52.051Z,11.00
2024-02-13T14:58:26.877Z,11.20
2024-02-13T15:01:02.647Z,11.10
2024-02-13T15:03:31.845Z,10.90
2024-02-13T15:05:58.750Z,10.90
2024-02-13T15:08:25.746Z,10.90
2024-02-13T15:10:53.311Z,11.20
2024-02-13T15:13:20.588Z,11.40
2024-02-13T15:15:52.848Z,11.20
2024-02-13T15:18:20.189Z,11.10
2024-02-13T15:20:48.460Z,10.80
2024-02-13T15:23:16.465Z,10.80
2024-02-13T15:25:43.635Z,11.10
2024-02-13T15:28:10.606Z,11.00
2024-02-13T15:30:39.042Z,11.00
2024-02-13T15:33:07.291Z,11.00
2024-02-13T15:35:52.927Z,10.90
2024-02-13T15:38:38.521Z,10.90
2024-02-13T15:41:23.874Z,10.80
2024-02-13T15:44:09.110Z,10.90
2024-02-13T15:46:54.414Z,11.00
2024-02-13T15:49:23.405Z,11.00
2024-02-13T15:51:53.754Z,10.90
2024-02-13T15:54:20.778Z,10.80
2024-02-13T15:56:53.415Z,10.90
2024-02-13T15:59:20.509Z,10.70
2024-02-13T16:01:48.279Z,10.30
2024-02-13T16:04:19.311Z,10.40
2024-02-13T16:06:48.400Z,10.30
2024-02-13T16:09:15.359Z,10.40
2024-02-13T16:11:43.440Z,10.50
2024-02-13T16:14:10.382Z,10.40
2024-02-13T16:16:38.142Z,10.40
2024-02-13T16:19:05.566Z,10.40
2024-02-13T16:21:32.865Z,10.30
2024-02-13T16:24:00.033Z,10.40
2024-02-13T16:26:28.320Z,10.20
2024-02-13T16:28:55.398Z,10.00
2024-02-13T16:31:23.158Z,10.20
2024-02-13T16:33:51.259Z,10.00
2024-02-13T16:36:19.127Z,10.20
2024-02-13T16:38:46.310Z,10.40
2024-02-13T16:41:20.311Z,10.50
2024-02-13T16:43:49.387Z,10.30
2024-02-13T16:46:21.464Z,10.30
2024-02-13T16:48:51.438Z,10.50
2024-02-13T16:51:22.124Z,10.40
2024-02-13T16:53:48.989Z,10.50
2024-02-13T16:56:18.021Z,10.70
2024-02-13T16:58:45.267Z,10.60
2024-02-13T17:01:12.251Z,10.70
2024-02-13T17:03:39.551Z,10.70
2024-02-13T17:06:09.734Z,10.70
2024-02-13T17:08:36.864Z,10.70
2024-02-13T17:11:04.266Z,10.60
2024-02-13T17:13:31.155Z,10.70
2024-02-13T17:15:59.057Z,10.70
2024-02-13T17:18:26.434Z,10.60
2024-02-13T17:20:53.968Z,10.90
2024-02-13T17:23:21.052Z,11.00
2024-02-13T17:25:48.236Z,10.80
2024-02-13T17:28:16.828Z,10.50
2024-02-13T17:30:46.546Z,10.60
2024-02-13T17:33:13.631Z,10.80
2024-02-13T17:35:41.007Z,10.70
2024-02-13T17:38:08.454Z,10.90
2024-02-13T17:40:35.376Z,10.90
2024-02-13T17:43:02.196Z,11.10
2024-02-13T17:45:29.126Z,11.20
2024-02-13T17:47:56.145Z,11.20
2024-02-13T17:50:23.115Z,11.00
2024-02-13T17:52:49.961Z,11.10
2024-02-13T17:55:20.322Z,11.30
2024-02-13T17:57:48.007Z,11.10
2024-02-13T18:00:19.773Z,10.90
2024-02-13T18:02:46.822Z,11.30
2024-02-13T18:05:13.765Z,11.30
2024-02-13T18:07:41.450Z,11.40
2024-02-13T18:10:09.833Z,11.00
2024-02-13T18:12:40.690Z,11.20
2024-02-13T18:15:09.899Z,11.20
2024-02-13T18:17:36.877Z,11.10
2024-02-13T18:20:04.148Z,11.10
2024-02-13T18:22:31.361Z,11.00
2024-02-13T18:24:58.348Z,11.00
2024-02-13T18:27:25.238Z,11.10
2024-02-13T18:29:53.728Z,11.10
2024-02-13T18:32:21.923Z,11.20
2024-02-13T18:34:48.889Z,11.20
2024-02-13T18:37:15.789Z,10.50
2024-02-13T18:39:48.379Z,11.40
2024-02-13T18:42:15.186Z,11.50
2024-02-13T18:44:42.176Z,11.70
2024-02-13T18:47:11.195Z,11.80
2024-02-13T18:49:38.461Z,11.70
2024-02-13T18:52:06.185Z,11.60
2024-02-13T18:54:34.808Z,11.70
2024-02-13T18:57:01.790Z,11.70
2024-02-13T18:59:31.212Z,12.00
2024-02-13T19:02:01.184Z,11.90
2024-02-13T19:04:28.812Z,12.00
2024-02-13T19:06:56.314Z,11.80
2024-02-13T19:09:23.465Z,11.90
2024-02-13T19:11:54.279Z,11.80
2024-02-13T19:14:22.155Z,11.60
2024-02-13T19:16:49.731Z,12.70
2024-02-13T19:19:16.821Z,11.80
2024-02-13T19:21:44.204Z,11.70
2024-02-13T19:24:11.330Z,11.90
2024-02-13T19:26:41.492Z,11.90
2024-02-13T19:29:09.432Z,12.10
2024-02-13T19:31:36.276Z,12.00
2024-02-13T19:34:03.304Z,12.00
2024-02-13T19:36:33.547Z,12.00
2024-02-13T19:39:00.899Z,12.10
2024-02-13T19:41:28.513Z,12.20
2024-02-13T19:43:55.408Z,12.10
2024-02-13T19:46:22.860Z,12.10
2024-02-13T19:48:51.415Z,12.10
2024-02-13T19:51:18.658Z,12.10
2024-02-13T19:53:46.622Z,12.10
2024-02-13T19:56:15.419Z,12.20
2024-02-13T19:58:43.706Z,12.10
2024-02-13T20:01:13.263Z,12.10
2024-02-13T20:03:40.361Z,12.20
2024-02-13T20:06:07.566Z,12.30
2024-02-13T20:08:34.655Z,12.20
2024-02-13T20:11:01.636Z,12.10
2024-02-13T20:13:28.486Z,12.20
2024-02-13T20:15:55.573Z,12.30
2024-02-13T20:18:22.997Z,12.40
2024-02-13T20:20:50.030Z,12.30
2024-02-13T20:23:18.928Z,12.40
2024-02-13T20:25:45.979Z,12.40
2024-02-13T20:28:14.369Z,12.60
2024-02-13T20:30:41.349Z,12.40
2024-02-13T20:33:08.613Z,12.40
2024-02-13T20:35:35.716Z,12.40
2024-02-13T20:38:04.596Z,12.50
2024-02-13T20:43:17.105Z,12.50
2024-02-13T20:45:44.028Z,12.40
2024-02-13T20:48:11.219Z,12.40
2024-02-13T20:50:38.744Z,12.60
2024-02-13T20:53:05.565Z,12.50
2024-02-13T20:55:32.442Z,12.60
2024-02-13T20:58:02.581Z,12.60
2024-02-13T21:00:30.505Z,12.50
2024-02-13T21:02:57.601Z,12.50
2024-02-13T21:05:25.581Z,12.50
2024-02-13T21:07:52.702Z,12.70
2024-02-13T21:10:20.262Z,12.50
2024-02-13T21:12:47.274Z,12.60
2024-02-13T21:15:14.981Z,12.60
2024-02-13T21:17:42.858Z,12.60
2024-02-13T21:20:15.594Z,12.70
2024-02-13T21:23:01.282Z,12.80
2024-02-13T21:25:28.609Z,12.70
2024-02-13T21:27:58.455Z,12.70
2024-02-13T21:30:25.276Z,12.70
2024-02-13T21:32:52.335Z,12.60
2024-02-13T21:35:20.919Z,12.60
2024-02-13T21:37:47.934Z,12.60
2024-02-13T21:40:15.352Z,12.50
2024-02-13T21:42:43.783Z,12.80
2024-02-13T21:45:11.077Z,12.80
2024-02-13T21:47:47.608Z,12.60
2024-02-13T21:50:14.617Z,12.60
2024-02-13T21:52:42.069Z,12.70
2024-02-13T21:55:09.233Z,12.70
2024-02-13T21:57:36.198Z,12.70
2024-02-13T22:00:07.612Z,12.60
2024-02-13T22:02:35.201Z,12.80
2024-02-13T22:05:02.074Z,12.90
2024-02-13T22:07:29.040Z,13.10
2024-02-13T22:09:59.740Z,13.00
2024-02-13T22:12:26.932Z,13.00
2024-02-13T22:14:53.784Z,12.80
2024-02-13T22:17:20.609Z,12.80
2024-02-13T22:19:47.524Z,12.70
2024-02-13T22:22:14.343Z,12.70
2024-02-13T22:24:41.973Z,12.90
2024-02-13T22:27:09.361Z,12.90
2024-02-13T22:29:36.277Z,12.90
2024-02-13T22:32:03.199Z,13.00
2024-02-13T22:34:30.187Z,13.10
2024-02-13T22:36:58.054Z,12.80
2024-02-13T22:39:24.912Z,12.90
2024-02-13T22:41:52.500Z,12.80
2024-02-13T22:44:20.557Z,12.70
2024-02-13T22:46:47.508Z,12.60
2024-02-13T22:49:14.651Z,12.70
2024-02-13T22:51:44.907Z,12.70
2024-02-13T22:54:12.368Z,12.50
2024-02-13T22:56:39.488Z,12.50
2024-02-13T22:59:07.071Z,12.60
2024-02-13T23:01:35.448Z,12.70
2024-02-13T23:04:05.148Z,12.60
2024-02-13T23:06:32.582Z,12.80
2024-02-13T23:09:00.686Z,12.60
2024-02-13T23:11:27.769Z,12.70
2024-02-13T23:13:55.432Z,12.50
2024-02-13T23:16:24.433Z,12.50
2024-02-13T23:18:51.696Z,12.60
2024-02-13T23:21:19.725Z,12.30
2024-02-13T23:23:46.668Z,12.30
2024-02-13T23:26:13.916Z,12.50
2024-02-13T23:28:49.052Z,12.50
2024-02-13T23:31:23.148Z,12.50
2024-02-13T23:33:50.295Z,12.40
2024-02-13T23:36:17.368Z,12.50
2024-02-13T23:38:45.635Z,12.40
2024-02-13T23:41:12.576Z,12.30
2024-02-13T23:43:39.374Z,12.50
2024-02-13T23:46:06.175Z,12.50
2024-02-13T23:48:33.087Z,12.40
2024-02-13T23:51:00.018Z,12.40
2024-02-13T23:53:26.951Z,12.40
2024-02-13T23:55:53.772Z,12.40
2024-02-13T23:58:20.899Z,12.60
